sensor_id;sensor_type;location;lat;lon;timestamp;P1;durP1;ratioP1;P2;durP2;ratioP2
1715;SDS011;855;48.824;9.220;2023-04-06T00:00:31;15.97;;;5.03;;
1715;SDS011;855;48.824;9.220;2023-04-06T00:02:58;12.40;;;6.07;;
1715;SDS011;855;48.824;9.220;2023-04-06T00:05:25;12.10;;;5.23;;
1715;SDS011;855;48.824;9.220;2023-04-06T00:07:52;13.10;;;5.70;;
1715;SDS011;855;48.824;9.220;2023-04-06T00:10:22;14.90;;;6.80;;
1715;SDS011;855;48.824;9.220;2023-04-06T00:12:49;12.00;;;5.83;;
1715;SDS011;855;48.824;9.220;2023-04-06T00:15:16;15.30;;;5.50;;
1715;SDS011;855;48.824;9.220;2023-04-06T00:17:43;11.87;;;5.57;;
1715;SDS011;855;48.824;9.220;2023-04-06T00:20:10;10.03;;;5.77;;
1715;SDS011;855;48.824;9.220;2023-04-06T00:22:38;13.73;;;6.60;;
1715;SDS011;855;48.824;9.220;2023-04-06T00:25:05;14.20;;;6.73;;
1715;SDS011;855;48.824;9.220;2023-04-06T00:27:33;9.67;;;5.93;;
1715;SDS011;855;48.824;9.220;2023-04-06T00:30:00;16.20;;;7.33;;
1715;SDS011;855;48.824;9.220;2023-04-06T00:32:28;10.63;;;6.10;;
1715;SDS011;855;48.824;9.220;2023-04-06T00:34:55;11.33;;;5.90;;
1715;SDS011;855;48.824;9.220;2023-04-06T00:37:21;10.70;;;5.83;;
1715;SDS011;855;48.824;9.220;2023-04-06T00:39:48;17.67;;;5.73;;
1715;SDS011;855;48.824;9.220;2023-04-06T00:42:16;17.47;;;5.63;;
1715;SDS011;855;48.824;9.220;2023-04-06T00:44:51;12.53;;;6.30;;
1715;SDS011;855;48.824;9.220;2023-04-06T00:47:18;22.23;;;6.40;;
1715;SDS011;855;48.824;9.220;2023-04-06T00:49:45;18.67;;;7.00;;
1715;SDS011;855;48.824;9.220;2023-04-06T00:52:12;15.43;;;5.77;;
1715;SDS011;855;48.824;9.220;2023-04-06T00:54:40;10.77;;;5.47;;
1715;SDS011;855;48.824;9.220;2023-04-06T00:57:07;12.43;;;6.80;;
1715;SDS011;855;48.824;9.220;2023-04-06T00:59:34;11.97;;;5.23;;
1715;SDS011;855;48.824;9.220;2023-04-06T01:02:02;13.17;;;5.33;;
1715;SDS011;855;48.824;9.220;2023-04-06T01:04:29;12.47;;;5.40;;
1715;SDS011;855;48.824;9.220;2023-04-06T01:06:56;13.43;;;6.27;;
1715;SDS011;855;48.824;9.220;2023-04-06T01:09:23;10.70;;;6.17;;
1715;SDS011;855;48.824;9.220;2023-04-06T01:11:51;13.77;;;7.13;;
1715;SDS011;855;48.824;9.220;2023-04-06T01:14:18;13.33;;;6.57;;
1715;SDS011;855;48.824;9.220;2023-04-06T01:16:45;13.30;;;6.57;;
1715;SDS011;855;48.824;9.220;2023-04-06T01:19:14;14.33;;;6.87;;
1715;SDS011;855;48.824;9.220;2023-04-06T01:21:41;12.73;;;6.50;;
1715;SDS011;855;48.824;9.220;2023-04-06T01:24:09;15.23;;;6.10;;
1715;SDS011;855;48.824;9.220;2023-04-06T01:26:36;8.97;;;5.07;;
1715;SDS011;855;48.824;9.220;2023-04-06T01:29:04;11.93;;;6.00;;
1715;SDS011;855;48.824;9.220;2023-04-06T01:31:31;13.77;;;7.13;;
1715;SDS011;855;48.824;9.220;2023-04-06T01:33:58;16.73;;;7.17;;
1715;SDS011;855;48.824;9.220;2023-04-06T01:36:24;18.40;;;7.20;;
1715;SDS011;855;48.824;9.220;2023-04-06T01:38:51;16.20;;;6.00;;
1715;SDS011;855;48.824;9.220;2023-04-06T01:41:20;11.90;;;6.33;;
1715;SDS011;855;48.824;9.220;2023-04-06T01:43:47;13.63;;;6.07;;
1715;SDS011;855;48.824;9.220;2023-04-06T01:46:15;10.90;;;6.43;;
1715;SDS011;855;48.824;9.220;2023-04-06T01:48:42;10.57;;;5.77;;
1715;SDS011;855;48.824;9.220;2023-04-06T01:51:09;13.53;;;6.13;;
1715;SDS011;855;48.824;9.220;2023-04-06T01:53:36;16.53;;;5.77;;
1715;SDS011;855;48.824;9.220;2023-04-06T01:56:03;15.90;;;6.47;;
1715;SDS011;855;48.824;9.220;2023-04-06T01:58:32;12.90;;;5.27;;
1715;SDS011;855;48.824;9.220;2023-04-06T02:00:59;12.20;;;6.70;;
1715;SDS011;855;48.824;9.220;2023-04-06T02:03:26;12.77;;;7.23;;
1715;SDS011;855;48.824;9.220;2023-04-06T02:05:53;12.43;;;6.60;;
1715;SDS011;855;48.824;9.220;2023-04-06T02:08:20;14.63;;;6.90;;
1715;SDS011;855;48.824;9.220;2023-04-06T02:10:47;17.90;;;7.13;;
1715;SDS011;855;48.824;9.220;2023-04-06T02:13:14;15.93;;;6.43;;
1715;SDS011;855;48.824;9.220;2023-04-06T02:15:42;14.93;;;7.37;;
1715;SDS011;855;48.824;9.220;2023-04-06T02:18:09;14.97;;;7.13;;
1715;SDS011;855;48.824;9.220;2023-04-06T02:20:36;10.53;;;6.00;;
1715;SDS011;855;48.824;9.220;2023-04-06T02:23:03;13.40;;;6.03;;
1715;SDS011;855;48.824;9.220;2023-04-06T02:25:30;14.17;;;7.23;;
1715;SDS011;855;48.824;9.220;2023-04-06T02:27:57;8.60;;;5.43;;
1715;SDS011;855;48.824;9.220;2023-04-06T02:30:24;12.90;;;6.33;;
1715;SDS011;855;48.824;9.220;2023-04-06T02:32:52;18.17;;;6.37;;
1715;SDS011;855;48.824;9.220;2023-04-06T02:35:19;13.33;;;7.10;;
1715;SDS011;855;48.824;9.220;2023-04-06T02:37:46;12.17;;;6.50;;
1715;SDS011;855;48.824;9.220;2023-04-06T02:40:13;20.13;;;6.87;;
1715;SDS011;855;48.824;9.220;2023-04-06T02:42:40;13.00;;;7.63;;
1715;SDS011;855;48.824;9.220;2023-04-06T02:45:07;12.17;;;5.50;;
1715;SDS011;855;48.824;9.220;2023-04-06T02:47:34;17.23;;;6.17;;
1715;SDS011;855;48.824;9.220;2023-04-06T02:50:03;15.77;;;8.00;;
1715;SDS011;855;48.824;9.220;2023-04-06T02:52:31;16.60;;;8.10;;
1715;SDS011;855;48.824;9.220;2023-04-06T02:54:58;11.07;;;6.60;;
1715;SDS011;855;48.824;9.220;2023-04-06T02:57:25;14.80;;;7.17;;
1715;SDS011;855;48.824;9.220;2023-04-06T02:59:52;12.03;;;6.37;;
1715;SDS011;855;48.824;9.220;2023-04-06T03:02:19;14.67;;;6.80;;
1715;SDS011;855;48.824;9.220;2023-04-06T03:04:46;16.30;;;6.33;;
1715;SDS011;855;48.824;9.220;2023-04-06T03:07:15;16.67;;;8.10;;
1715;SDS011;855;48.824;9.220;2023-04-06T03:09:42;11.20;;;6.33;;
1715;SDS011;855;48.824;9.220;2023-04-06T03:12:09;10.47;;;6.37;;
1715;SDS011;855;48.824;9.220;2023-04-06T03:14:35;6.80;;;5.03;;
1715;SDS011;855;48.824;9.220;2023-04-06T03:17:02;15.60;;;6.37;;
1715;SDS011;855;48.824;9.220;2023-04-06T03:19:29;15.97;;;7.27;;
1715;SDS011;855;48.824;9.220;2023-04-06T03:21:56;17.03;;;6.57;;
1715;SDS011;855;48.824;9.220;2023-04-06T03:24:25;19.63;;;8.20;;
1715;SDS011;855;48.824;9.220;2023-04-06T03:26:52;13.03;;;6.13;;
1715;SDS011;855;48.824;9.220;2023-04-06T03:29:18;11.73;;;6.80;;
1715;SDS011;855;48.824;9.220;2023-04-06T03:31:45;13.40;;;6.70;;
1715;SDS011;855;48.824;9.220;2023-04-06T03:34:12;16.10;;;6.80;;
1715;SDS011;855;48.824;9.220;2023-04-06T03:36:39;17.87;;;7.80;;
1715;SDS011;855;48.824;9.220;2023-04-06T03:39:06;16.63;;;7.73;;
1715;SDS011;855;48.824;9.220;2023-04-06T03:41:34;17.77;;;8.87;;
1715;SDS011;855;48.824;9.220;2023-04-06T03:44:01;15.10;;;6.10;;
1715;SDS011;855;48.824;9.220;2023-04-06T03:46:28;17.90;;;7.03;;
1715;SDS011;855;48.824;9.220;2023-04-06T03:48:55;12.90;;;6.23;;
1715;SDS011;855;48.824;9.220;2023-04-06T03:51:22;14.40;;;6.93;;
1715;SDS011;855;48.824;9.220;2023-04-06T03:53:51;16.00;;;6.80;;
1715;SDS011;855;48.824;9.220;2023-04-06T03:56:18;12.50;;;6.50;;
1715;SDS011;855;48.824;9.220;2023-04-06T03:58:46;12.60;;;6.70;;
1715;SDS011;855;48.824;9.220;2023-04-06T04:01:15;10.27;;;6.57;;
1715;SDS011;855;48.824;9.220;2023-04-06T04:03:42;11.80;;;6.70;;
1715;SDS011;855;48.824;9.220;2023-04-06T04:06:09;11.23;;;5.67;;
1715;SDS011;855;48.824;9.220;2023-04-06T04:08:36;15.10;;;7.87;;
1715;SDS011;855;48.824;9.220;2023-04-06T04:11:03;13.73;;;8.27;;
1715;SDS011;855;48.824;9.220;2023-04-06T04:13:30;11.30;;;6.90;;
1715;SDS011;855;48.824;9.220;2023-04-06T04:15:58;23.00;;;7.83;;
1715;SDS011;855;48.824;9.220;2023-04-06T04:18:25;15.40;;;6.77;;
1715;SDS011;855;48.824;9.220;2023-04-06T04:20:52;17.20;;;7.40;;
1715;SDS011;855;48.824;9.220;2023-04-06T04:23:19;9.93;;;6.83;;
1715;SDS011;855;48.824;9.220;2023-04-06T04:25:46;21.80;;;8.93;;
1715;SDS011;855;48.824;9.220;2023-04-06T04:28:13;12.87;;;6.87;;
1715;SDS011;855;48.824;9.220;2023-04-06T04:30:40;16.90;;;9.13;;
1715;SDS011;855;48.824;9.220;2023-04-06T04:33:08;21.07;;;8.53;;
1715;SDS011;855;48.824;9.220;2023-04-06T04:35:35;16.20;;;7.83;;
1715;SDS011;855;48.824;9.220;2023-04-06T04:38:02;14.20;;;7.10;;
1715;SDS011;855;48.824;9.220;2023-04-06T04:40:30;18.37;;;8.70;;
1715;SDS011;855;48.824;9.220;2023-04-06T04:42:57;20.67;;;8.30;;
1715;SDS011;855;48.824;9.220;2023-04-06T04:45:24;16.80;;;7.37;;
1715;SDS011;855;48.824;9.220;2023-04-06T04:47:51;15.20;;;7.77;;
1715;SDS011;855;48.824;9.220;2023-04-06T04:50:19;16.23;;;7.20;;
1715;SDS011;855;48.824;9.220;2023-04-06T04:52:46;17.50;;;7.50;;
1715;SDS011;855;48.824;9.220;2023-04-06T04:55:13;13.73;;;8.20;;
1715;SDS011;855;48.824;9.220;2023-04-06T04:57:40;20.47;;;6.93;;
1715;SDS011;855;48.824;9.220;2023-04-06T05:00:07;23.97;;;10.20;;
1715;SDS011;855;48.824;9.220;2023-04-06T05:02:35;18.33;;;7.27;;
1715;SDS011;855;48.824;9.220;2023-04-06T05:05:02;17.33;;;6.90;;
1715;SDS011;855;48.824;9.220;2023-04-06T05:07:31;19.80;;;7.77;;
1715;SDS011;855;48.824;9.220;2023-04-06T05:09:57;14.37;;;7.77;;
1715;SDS011;855;48.824;9.220;2023-04-06T05:12:24;13.50;;;6.37;;
1715;SDS011;855;48.824;9.220;2023-04-06T05:14:52;20.57;;;8.20;;
1715;SDS011;855;48.824;9.220;2023-04-06T05:17:20;12.20;;;6.50;;
1715;SDS011;855;48.824;9.220;2023-04-06T05:19:47;11.20;;;6.80;;
1715;SDS011;855;48.824;9.220;2023-04-06T05:22:14;11.47;;;5.93;;
1715;SDS011;855;48.824;9.220;2023-04-06T05:24:44;10.77;;;5.80;;
1715;SDS011;855;48.824;9.220;2023-04-06T05:27:10;15.37;;;5.90;;
1715;SDS011;855;48.824;9.220;2023-04-06T05:29:37;15.13;;;6.57;;
1715;SDS011;855;48.824;9.220;2023-04-06T05:32:05;18.27;;;8.07;;
1715;SDS011;855;48.824;9.220;2023-04-06T05:34:32;14.53;;;7.00;;
1715;SDS011;855;48.824;9.220;2023-04-06T05:36:59;12.00;;;6.50;;
1715;SDS011;855;48.824;9.220;2023-04-06T05:39:26;14.37;;;6.63;;
1715;SDS011;855;48.824;9.220;2023-04-06T05:41:55;15.00;;;7.80;;
1715;SDS011;855;48.824;9.220;2023-04-06T05:44:22;17.63;;;7.40;;
1715;SDS011;855;48.824;9.220;2023-04-06T05:46:48;13.40;;;7.50;;
1715;SDS011;855;48.824;9.220;2023-04-06T05:49:15;15.30;;;7.03;;
1715;SDS011;855;48.824;9.220;2023-04-06T05:51:42;13.67;;;6.60;;
1715;SDS011;855;48.824;9.220;2023-04-06T05:54:09;17.53;;;5.83;;
1715;SDS011;855;48.824;9.220;2023-04-06T05:56:36;16.20;;;6.70;;
1715;SDS011;855;48.824;9.220;2023-04-06T05:59:04;14.13;;;6.77;;
1715;SDS011;855;48.824;9.220;2023-04-06T06:01:32;12.60;;;6.10;;
1715;SDS011;855;48.824;9.220;2023-04-06T06:04:00;13.40;;;5.60;;
1715;SDS011;855;48.824;9.220;2023-04-06T06:06:27;10.90;;;5.37;;
1715;SDS011;855;48.824;9.220;2023-04-06T06:08:55;15.73;;;7.37;;
1715;SDS011;855;48.824;9.220;2023-04-06T06:11:24;14.77;;;8.00;;
1715;SDS011;855;48.824;9.220;2023-04-06T06:13:50;15.17;;;7.47;;
1715;SDS011;855;48.824;9.220;2023-04-06T06:16:19;13.83;;;6.80;;
1715;SDS011;855;48.824;9.220;2023-04-06T06:18:46;17.53;;;5.83;;
1715;SDS011;855;48.824;9.220;2023-04-06T06:21:13;21.87;;;5.87;;
1715;SDS011;855;48.824;9.220;2023-04-06T06:23:42;13.80;;;5.73;;
1715;SDS011;855;48.824;9.220;2023-04-06T06:26:09;10.37;;;5.50;;
1715;SDS011;855;48.824;9.220;2023-04-06T06:28:36;16.07;;;6.60;;
1715;SDS011;855;48.824;9.220;2023-04-06T06:31:03;7.00;;;4.10;;
1715;SDS011;855;48.824;9.220;2023-04-06T06:33:31;9.40;;;6.07;;
1715;SDS011;855;48.824;9.220;2023-04-06T06:35:58;13.97;;;6.37;;
1715;SDS011;855;48.824;9.220;2023-04-06T06:38:25;9.73;;;5.20;;
1715;SDS011;855;48.824;9.220;2023-04-06T06:40:52;9.03;;;5.00;;
1715;SDS011;855;48.824;9.220;2023-04-06T06:43:19;17.17;;;6.47;;
1715;SDS011;855;48.824;9.220;2023-04-06T06:45:46;13.67;;;5.30;;
1715;SDS011;855;48.824;9.220;2023-04-06T06:48:13;12.30;;;5.20;;
1715;SDS011;855;48.824;9.220;2023-04-06T06:50:41;20.70;;;7.10;;
1715;SDS011;855;48.824;9.220;2023-04-06T06:53:08;11.07;;;5.30;;
1715;SDS011;855;48.824;9.220;2023-04-06T06:55:36;7.93;;;4.70;;
1715;SDS011;855;48.824;9.220;2023-04-06T06:58:02;6.47;;;4.10;;
1715;SDS011;855;48.824;9.220;2023-04-06T07:00:31;5.50;;;3.77;;
1715;SDS011;855;48.824;9.220;2023-04-06T07:02:58;7.77;;;5.40;;
1715;SDS011;855;48.824;9.220;2023-04-06T07:05:25;10.50;;;5.20;;
1715;SDS011;855;48.824;9.220;2023-04-06T07:07:53;11.80;;;4.87;;
1715;SDS011;855;48.824;9.220;2023-04-06T07:10:20;8.43;;;5.50;;
1715;SDS011;855;48.824;9.220;2023-04-06T07:12:47;10.13;;;4.53;;
1715;SDS011;855;48.824;9.220;2023-04-06T07:15:14;5.03;;;3.97;;
1715;SDS011;855;48.824;9.220;2023-04-06T07:17:42;16.03;;;4.70;;
1715;SDS011;855;48.824;9.220;2023-04-06T07:20:10;7.90;;;3.97;;
1715;SDS011;855;48.824;9.220;2023-04-06T07:22:37;7.70;;;3.63;;
1715;SDS011;855;48.824;9.220;2023-04-06T07:25:06;9.67;;;5.13;;
1715;SDS011;855;48.824;9.220;2023-04-06T07:27:34;18.60;;;5.60;;
1715;SDS011;855;48.824;9.220;2023-04-06T07:30:01;8.77;;;4.73;;
1715;SDS011;855;48.824;9.220;2023-04-06T07:32:28;7.47;;;4.77;;
1715;SDS011;855;48.824;9.220;2023-04-06T07:34:55;9.43;;;4.80;;
1715;SDS011;855;48.824;9.220;2023-04-06T07:37:22;11.40;;;5.00;;
1715;SDS011;855;48.824;9.220;2023-04-06T07:39:49;5.27;;;3.63;;
1715;SDS011;855;48.824;9.220;2023-04-06T07:42:17;10.50;;;5.37;;
1715;SDS011;855;48.824;9.220;2023-04-06T07:44:44;7.67;;;4.83;;
1715;SDS011;855;48.824;9.220;2023-04-06T07:47:11;3.47;;;2.97;;
1715;SDS011;855;48.824;9.220;2023-04-06T07:49:38;6.30;;;4.87;;
1715;SDS011;855;48.824;9.220;2023-04-06T07:52:05;11.67;;;5.27;;
1715;SDS011;855;48.824;9.220;2023-04-06T07:54:32;10.60;;;5.10;;
1715;SDS011;855;48.824;9.220;2023-04-06T07:56:59;5.30;;;3.60;;
1715;SDS011;855;48.824;9.220;2023-04-06T07:59:27;7.60;;;5.17;;
1715;SDS011;855;48.824;9.220;2023-04-06T08:01:54;4.50;;;3.77;;
1715;SDS011;855;48.824;9.220;2023-04-06T08:04:21;8.67;;;4.00;;
1715;SDS011;855;48.824;9.220;2023-04-06T08:06:48;9.80;;;4.43;;
1715;SDS011;855;48.824;9.220;2023-04-06T08:09:15;9.40;;;5.10;;
1715;SDS011;855;48.824;9.220;2023-04-06T08:11:42;5.20;;;3.90;;
1715;SDS011;855;48.824;9.220;2023-04-06T08:14:09;7.17;;;4.20;;
1715;SDS011;855;48.824;9.220;2023-04-06T08:16:38;10.70;;;3.57;;
1715;SDS011;855;48.824;9.220;2023-04-06T08:19:05;9.23;;;3.93;;
1715;SDS011;855;48.824;9.220;2023-04-06T08:21:34;8.60;;;5.70;;
1715;SDS011;855;48.824;9.220;2023-04-06T08:24:01;7.07;;;4.10;;
1715;SDS011;855;48.824;9.220;2023-04-06T08:26:28;10.57;;;4.77;;
1715;SDS011;855;48.824;9.220;2023-04-06T08:28:55;7.63;;;4.40;;
1715;SDS011;855;48.824;9.220;2023-04-06T08:31:22;5.47;;;4.07;;
1715;SDS011;855;48.824;9.220;2023-04-06T08:33:50;12.40;;;4.83;;
1715;SDS011;855;48.824;9.220;2023-04-06T08:36:17;6.97;;;3.40;;
1715;SDS011;855;48.824;9.220;2023-04-06T08:38:47;7.87;;;4.43;;
1715;SDS011;855;48.824;9.220;2023-04-06T08:41:15;8.60;;;4.40;;
1715;SDS011;855;48.824;9.220;2023-04-06T08:43:43;7.07;;;3.90;;
1715;SDS011;855;48.824;9.220;2023-04-06T08:46:12;10.87;;;5.10;;
1715;SDS011;855;48.824;9.220;2023-04-06T08:48:40;9.20;;;4.67;;
1715;SDS011;855;48.824;9.220;2023-04-06T08:51:10;7.23;;;4.70;;
1715;SDS011;855;48.824;9.220;2023-04-06T08:53:38;7.50;;;3.90;;
1715;SDS011;855;48.824;9.220;2023-04-06T08:56:05;8.13;;;5.10;;
1715;SDS011;855;48.824;9.220;2023-04-06T08:58:34;8.73;;;4.27;;
1715;SDS011;855;48.824;9.220;2023-04-06T09:01:05;11.70;;;4.70;;
1715;SDS011;855;48.824;9.220;2023-04-06T09:03:34;6.93;;;4.17;;
1715;SDS011;855;48.824;9.220;2023-04-06T09:06:04;6.33;;;3.43;;
1715;SDS011;855;48.824;9.220;2023-04-06T09:08:33;4.90;;;2.37;;
1715;SDS011;855;48.824;9.220;2023-04-06T09:11:01;10.60;;;4.47;;
1715;SDS011;855;48.824;9.220;2023-04-06T09:13:28;12.60;;;4.83;;
1715;SDS011;855;48.824;9.220;2023-04-06T09:15:59;9.40;;;4.53;;
1715;SDS011;855;48.824;9.220;2023-04-06T09:18:30;10.53;;;5.63;;
1715;SDS011;855;48.824;9.220;2023-04-06T09:20:59;7.03;;;4.00;;
1715;SDS011;855;48.824;9.220;2023-04-06T09:23:26;6.17;;;3.97;;
1715;SDS011;855;48.824;9.220;2023-04-06T09:26:05;6.57;;;4.10;;
1715;SDS011;855;48.824;9.220;2023-04-06T09:28:43;6.30;;;3.50;;
1715;SDS011;855;48.824;9.220;2023-04-06T09:31:11;10.90;;;4.43;;
1715;SDS011;855;48.824;9.220;2023-04-06T09:33:38;12.53;;;4.30;;
1715;SDS011;855;48.824;9.220;2023-04-06T09:36:06;12.23;;;4.80;;
1715;SDS011;855;48.824;9.220;2023-04-06T09:38:36;7.27;;;3.40;;
1715;SDS011;855;48.824;9.220;2023-04-06T09:41:05;11.83;;;5.00;;
1715;SDS011;855;48.824;9.220;2023-04-06T09:43:32;7.93;;;3.73;;
1715;SDS011;855;48.824;9.220;2023-04-06T09:46:00;6.10;;;3.90;;
1715;SDS011;855;48.824;9.220;2023-04-06T09:48:29;11.93;;;5.07;;
1715;SDS011;855;48.824;9.220;2023-04-06T09:51:01;8.60;;;3.40;;
1715;SDS011;855;48.824;9.220;2023-04-06T09:53:30;7.67;;;3.93;;
1715;SDS011;855;48.824;9.220;2023-04-06T09:56:00;7.90;;;4.00;;
1715;SDS011;855;48.824;9.220;2023-04-06T09:58:34;7.80;;;3.50;;
1715;SDS011;855;48.824;9.220;2023-04-06T10:01:07;11.97;;;3.80;;
1715;SDS011;855;48.824;9.220;2023-04-06T10:03:38;3.63;;;2.03;;
1715;SDS011;855;48.824;9.220;2023-04-06T10:06:11;4.17;;;3.00;;
1715;SDS011;855;48.824;9.220;2023-04-06T10:08:40;13.27;;;4.23;;
1715;SDS011;855;48.824;9.220;2023-04-06T10:11:11;2.67;;;2.50;;
1715;SDS011;855;48.824;9.220;2023-04-06T10:13:40;9.43;;;3.63;;
1715;SDS011;855;48.824;9.220;2023-04-06T10:16:08;7.73;;;4.80;;
1715;SDS011;855;48.824;9.220;2023-04-06T10:18:35;6.63;;;3.13;;
1715;SDS011;855;48.824;9.220;2023-04-06T10:21:06;8.03;;;4.50;;
1715;SDS011;855;48.824;9.220;2023-04-06T10:23:36;12.33;;;4.80;;
1715;SDS011;855;48.824;9.220;2023-04-06T10:26:12;9.83;;;2.97;;
1715;SDS011;855;48.824;9.220;2023-04-06T10:28:43;7.13;;;3.53;;
1715;SDS011;855;48.824;9.220;2023-04-06T10:31:11;8.53;;;2.97;;
1715;SDS011;855;48.824;9.220;2023-04-06T10:33:38;4.60;;;2.30;;
1715;SDS011;855;48.824;9.220;2023-04-06T10:36:09;8.50;;;4.13;;
1715;SDS011;855;48.824;9.220;2023-04-06T10:38:37;6.60;;;3.73;;
1715;SDS011;855;48.824;9.220;2023-04-06T10:41:05;11.43;;;5.20;;
1715;SDS011;855;48.824;9.220;2023-04-06T10:43:33;4.50;;;2.70;;
1715;SDS011;855;48.824;9.220;2023-04-06T10:46:03;4.23;;;2.63;;
1715;SDS011;855;48.824;9.220;2023-04-06T10:48:37;5.50;;;2.57;;
1715;SDS011;855;48.824;9.220;2023-04-06T10:51:09;4.23;;;2.67;;
1715;SDS011;855;48.824;9.220;2023-04-06T10:53:37;7.33;;;3.87;;
1715;SDS011;855;48.824;9.220;2023-04-06T10:56:08;8.47;;;4.33;;
1715;SDS011;855;48.824;9.220;2023-04-06T10:58:37;5.90;;;2.97;;
1715;SDS011;855;48.824;9.220;2023-04-06T11:01:05;4.00;;;2.30;;
1715;SDS011;855;48.824;9.220;2023-04-06T11:03:36;4.27;;;2.60;;
1715;SDS011;855;48.824;9.220;2023-04-06T11:06:09;7.13;;;3.00;;
1715;SDS011;855;48.824;9.220;2023-04-06T11:08:36;4.40;;;2.90;;
1715;SDS011;855;48.824;9.220;2023-04-06T11:11:05;8.13;;;2.97;;
1715;SDS011;855;48.824;9.220;2023-04-06T11:13:40;7.53;;;2.80;;
1715;SDS011;855;48.824;9.220;2023-04-06T11:16:13;5.97;;;3.20;;
1715;SDS011;855;48.824;9.220;2023-04-06T11:18:50;8.77;;;3.93;;
1715;SDS011;855;48.824;9.220;2023-04-06T11:21:19;12.90;;;3.80;;
1715;SDS011;855;48.824;9.220;2023-04-06T11:24:06;4.70;;;2.60;;
1715;SDS011;855;48.824;9.220;2023-04-06T11:26:36;6.10;;;3.73;;
1715;SDS011;855;48.824;9.220;2023-04-06T11:29:07;8.43;;;2.50;;
1715;SDS011;855;48.824;9.220;2023-04-06T11:31:38;5.77;;;2.70;;
1715;SDS011;855;48.824;9.220;2023-04-06T11:34:09;4.13;;;2.43;;
1715;SDS011;855;48.824;9.220;2023-04-06T11:36:40;9.23;;;3.40;;
1715;SDS011;855;48.824;9.220;2023-04-06T11:39:08;4.07;;;2.53;;
1715;SDS011;855;48.824;9.220;2023-04-06T11:41:35;16.30;;;2.70;;
1715;SDS011;855;48.824;9.220;2023-04-06T11:44:02;7.63;;;2.57;;
1715;SDS011;855;48.824;9.220;2023-04-06T11:46:29;8.60;;;2.80;;
1715;SDS011;855;48.824;9.220;2023-04-06T11:48:59;6.20;;;3.30;;
1715;SDS011;855;48.824;9.220;2023-04-06T11:51:26;5.23;;;2.77;;
1715;SDS011;855;48.824;9.220;2023-04-06T11:53:54;7.07;;;3.30;;
1715;SDS011;855;48.824;9.220;2023-04-06T11:56:25;11.90;;;3.30;;
1715;SDS011;855;48.824;9.220;2023-04-06T11:58:54;9.80;;;3.53;;
1715;SDS011;855;48.824;9.220;2023-04-06T12:01:21;8.17;;;2.90;;
1715;SDS011;855;48.824;9.220;2023-04-06T12:03:49;5.30;;;2.93;;
1715;SDS011;855;48.824;9.220;2023-04-06T12:06:18;7.70;;;3.37;;
1715;SDS011;855;48.824;9.220;2023-04-06T12:08:45;10.50;;;3.77;;
1715;SDS011;855;48.824;9.220;2023-04-06T12:11:12;3.00;;;1.90;;
1715;SDS011;855;48.824;9.220;2023-04-06T12:13:39;3.83;;;2.33;;
1715;SDS011;855;48.824;9.220;2023-04-06T12:16:06;4.67;;;2.80;;
1715;SDS011;855;48.824;9.220;2023-04-06T12:18:32;3.33;;;2.20;;
1715;SDS011;855;48.824;9.220;2023-04-06T12:20:59;7.03;;;3.60;;
1715;SDS011;855;48.824;9.220;2023-04-06T12:23:28;2.83;;;2.20;;
1715;SDS011;855;48.824;9.220;2023-04-06T12:25:55;5.10;;;2.43;;
1715;SDS011;855;48.824;9.220;2023-04-06T12:28:22;3.80;;;1.93;;
1715;SDS011;855;48.824;9.220;2023-04-06T12:30:52;3.47;;;2.67;;
1715;SDS011;855;48.824;9.220;2023-04-06T12:33:19;5.50;;;2.83;;
1715;SDS011;855;48.824;9.220;2023-04-06T12:35:47;6.60;;;2.60;;
1715;SDS011;855;48.824;9.220;2023-04-06T12:38:14;4.73;;;2.47;;
1715;SDS011;855;48.824;9.220;2023-04-06T12:40:43;11.33;;;2.87;;
1715;SDS011;855;48.824;9.220;2023-04-06T12:43:10;4.73;;;2.33;;
1715;SDS011;855;48.824;9.220;2023-04-06T12:45:38;6.30;;;3.43;;
1715;SDS011;855;48.824;9.220;2023-04-06T12:48:05;3.43;;;2.73;;
1715;SDS011;855;48.824;9.220;2023-04-06T12:50:32;4.40;;;3.47;;
1715;SDS011;855;48.824;9.220;2023-04-06T12:52:59;12.27;;;3.97;;
1715;SDS011;855;48.824;9.220;2023-04-06T12:55:29;6.23;;;2.50;;
1715;SDS011;855;48.824;9.220;2023-04-06T12:58:00;6.40;;;2.93;;
1715;SDS011;855;48.824;9.220;2023-04-06T13:00:28;3.93;;;2.43;;
1715;SDS011;855;48.824;9.220;2023-04-06T13:02:56;5.10;;;3.00;;
1715;SDS011;855;48.824;9.220;2023-04-06T13:05:22;6.30;;;3.17;;
1715;SDS011;855;48.824;9.220;2023-04-06T13:07:49;14.03;;;3.17;;
1715;SDS011;855;48.824;9.220;2023-04-06T13:10:16;6.40;;;3.00;;
1715;SDS011;855;48.824;9.220;2023-04-06T13:12:43;6.17;;;2.90;;
1715;SDS011;855;48.824;9.220;2023-04-06T13:15:12;6.63;;;3.10;;
1715;SDS011;855;48.824;9.220;2023-04-06T13:17:39;7.70;;;3.10;;
1715;SDS011;855;48.824;9.220;2023-04-06T13:20:06;4.90;;;2.77;;
1715;SDS011;855;48.824;9.220;2023-04-06T13:22:35;2.33;;;1.83;;
1715;SDS011;855;48.824;9.220;2023-04-06T13:25:02;4.37;;;3.03;;
1715;SDS011;855;48.824;9.220;2023-04-06T13:27:30;6.57;;;2.50;;
1715;SDS011;855;48.824;9.220;2023-04-06T13:29:58;1.93;;;1.83;;
1715;SDS011;855;48.824;9.220;2023-04-06T13:32:27;4.13;;;2.17;;
1715;SDS011;855;48.824;9.220;2023-04-06T13:34:55;6.10;;;2.53;;
1715;SDS011;855;48.824;9.220;2023-04-06T13:37:22;5.10;;;2.17;;
1715;SDS011;855;48.824;9.220;2023-04-06T13:39:49;7.50;;;2.77;;
1715;SDS011;855;48.824;9.220;2023-04-06T13:42:16;3.30;;;2.40;;
1715;SDS011;855;48.824;9.220;2023-04-06T13:44:43;8.13;;;3.20;;
1715;SDS011;855;48.824;9.220;2023-04-06T13:47:12;13.70;;;3.33;;
1715;SDS011;855;48.824;9.220;2023-04-06T13:49:41;5.17;;;2.53;;
1715;SDS011;855;48.824;9.220;2023-04-06T13:52:08;7.17;;;3.03;;
1715;SDS011;855;48.824;9.220;2023-04-06T13:54:36;6.37;;;3.00;;
1715;SDS011;855;48.824;9.220;2023-04-06T13:57:03;2.83;;;2.20;;
1715;SDS011;855;48.824;9.220;2023-04-06T13:59:33;2.13;;;1.97;;
1715;SDS011;855;48.824;9.220;2023-04-06T14:02:01;5.90;;;3.33;;
1715;SDS011;855;48.824;9.220;2023-04-06T14:04:28;11.30;;;2.90;;
1715;SDS011;855;48.824;9.220;2023-04-06T14:06:57;6.00;;;3.10;;
1715;SDS011;855;48.824;9.220;2023-04-06T14:09:24;5.43;;;3.17;;
1715;SDS011;855;48.824;9.220;2023-04-06T14:11:51;5.70;;;2.63;;
1715;SDS011;855;48.824;9.220;2023-04-06T14:14:18;5.67;;;2.60;;
1715;SDS011;855;48.824;9.220;2023-04-06T14:16:46;6.47;;;2.37;;
1715;SDS011;855;48.824;9.220;2023-04-06T14:19:14;8.47;;;2.90;;
1715;SDS011;855;48.824;9.220;2023-04-06T14:21:42;11.70;;;3.23;;
1715;SDS011;855;48.824;9.220;2023-04-06T14:24:11;4.03;;;2.23;;
1715;SDS011;855;48.824;9.220;2023-04-06T14:26:38;5.33;;;3.23;;
1715;SDS011;855;48.824;9.220;2023-04-06T14:29:06;6.17;;;2.87;;
1715;SDS011;855;48.824;9.220;2023-04-06T14:31:34;4.63;;;2.90;;
1715;SDS011;855;48.824;9.220;2023-04-06T14:34:02;3.50;;;2.13;;
1715;SDS011;855;48.824;9.220;2023-04-06T14:36:30;4.10;;;2.13;;
1715;SDS011;855;48.824;9.220;2023-04-06T14:39:01;4.40;;;2.40;;
1715;SDS011;855;48.824;9.220;2023-04-06T14:41:31;6.97;;;2.37;;
1715;SDS011;855;48.824;9.220;2023-04-06T14:43:58;9.30;;;3.10;;
1715;SDS011;855;48.824;9.220;2023-04-06T14:46:26;2.90;;;2.00;;
1715;SDS011;855;48.824;9.220;2023-04-06T14:48:54;5.23;;;2.27;;
1715;SDS011;855;48.824;9.220;2023-04-06T14:51:20;5.43;;;3.40;;
1715;SDS011;855;48.824;9.220;2023-04-06T15:01:35;4.40;;;2.53;;
1715;SDS011;855;48.824;9.220;2023-04-06T15:04:02;7.30;;;3.00;;
1715;SDS011;855;48.824;9.220;2023-04-06T15:06:30;5.00;;;2.90;;
1715;SDS011;855;48.824;9.220;2023-04-06T15:08:57;3.57;;;2.30;;
1715;SDS011;855;48.824;9.220;2023-04-06T15:11:25;4.10;;;2.13;;
1715;SDS011;855;48.824;9.220;2023-04-06T15:16:28;4.33;;;2.70;;
1715;SDS011;855;48.824;9.220;2023-04-06T15:18:58;6.60;;;2.60;;
1715;SDS011;855;48.824;9.220;2023-04-06T15:21:25;7.33;;;3.60;;
1715;SDS011;855;48.824;9.220;2023-04-06T15:23:52;3.73;;;1.93;;
1715;SDS011;855;48.824;9.220;2023-04-06T15:26:20;4.43;;;2.37;;
1715;SDS011;855;48.824;9.220;2023-04-06T15:28:47;5.30;;;2.17;;
1715;SDS011;855;48.824;9.220;2023-04-06T15:31:14;4.13;;;1.97;;
1715;SDS011;855;48.824;9.220;2023-04-06T15:33:41;7.13;;;3.13;;
1715;SDS011;855;48.824;9.220;2023-04-06T15:36:24;9.20;;;3.27;;